sensor_id;sensor_type;location;lat;lon;timestamp;P1;durP1;ratioP1;P2;durP2;ratioP2
64029;SDS011;50277;52.064;4.492;2023-06-01T00:01:54;15.45;;;9.27;;
64029;SDS011;50277;52.064;4.492;2023-06-01T00:04:19;15.73;;;10.13;;
64029;SDS011;50277;52.064;4.492;2023-06-01T00:06:44;13.05;;;9.43;;
64029;SDS011;50277;52.064;4.492;2023-06-01T00:09:10;17.42;;;10.23;;
64029;SDS011;50277;52.064;4.492;2023-06-01T00:11:35;12.32;;;10.02;;
64029;SDS011;50277;52.064;4.492;2023-06-01T00:14:01;18.75;;;9.52;;
64029;SDS011;50277;52.064;4.492;2023-06-01T00:16:26;16.23;;;9.63;;
64029;SDS011;50277;52.064;4.492;2023-06-01T00:18:51;20.42;;;9.98;;
64029;SDS011;50277;52.064;4.492;2023-06-01T00:21:21;14.85;;;9.55;;
64029;SDS011;50277;52.064;4.492;2023-06-01T00:23:47;14.02;;;8.18;;
64029;SDS011;50277;52.064;4.492;2023-06-01T00:26:13;14.18;;;8.70;;
64029;SDS011;50277;52.064;4.492;2023-06-01T00:28:38;13.90;;;8.38;;
64029;SDS011;50277;52.064;4.492;2023-06-01T00:31:07;19.55;;;8.60;;
64029;SDS011;50277;52.064;4.492;2023-06-01T00:33:32;11.20;;;7.07;;
64029;SDS011;50277;52.064;4.492;2023-06-01T00:35:58;12.05;;;7.13;;
64029;SDS011;50277;52.064;4.492;2023-06-01T00:38:23;12.65;;;6.88;;
64029;SDS011;50277;52.064;4.492;2023-06-01T00:40:48;11.82;;;7.03;;
64029;SDS011;50277;52.064;4.492;2023-06-01T00:43:15;12.95;;;6.28;;
64029;SDS011;50277;52.064;4.492;2023-06-01T00:45:41;11.05;;;6.55;;
64029;SDS011;50277;52.064;4.492;2023-06-01T00:48:06;11.45;;;6.75;;
64029;SDS011;50277;52.064;4.492;2023-06-01T00:50:31;13.32;;;7.07;;
64029;SDS011;50277;52.064;4.492;2023-06-01T00:52:57;13.35;;;6.32;;
64029;SDS011;50277;52.064;4.492;2023-06-01T00:55:23;11.23;;;6.95;;
64029;SDS011;50277;52.064;4.492;2023-06-01T00:57:49;10.13;;;5.82;;
64029;SDS011;50277;52.064;4.492;2023-06-01T01:00:15;12.10;;;5.88;;
64029;SDS011;50277;52.064;4.492;2023-06-01T01:02:41;10.32;;;5.40;;
64029;SDS011;50277;52.064;4.492;2023-06-01T01:05:10;11.70;;;6.32;;
64029;SDS011;50277;52.064;4.492;2023-06-01T01:07:55;11.63;;;6.35;;
64029;SDS011;50277;52.064;4.492;2023-06-01T01:13:01;13.10;;;6.63;;
64029;SDS011;50277;52.064;4.492;2023-06-01T01:18:30;11.90;;;6.13;;
64029;SDS011;50277;52.064;4.492;2023-06-01T01:20:58;12.50;;;6.47;;
64029;SDS011;50277;52.064;4.492;2023-06-01T01:26:42;14.45;;;6.70;;
64029;SDS011;50277;52.064;4.492;2023-06-01T01:29:17;10.05;;;7.28;;
64029;SDS011;50277;52.064;4.492;2023-06-01T01:31:45;12.27;;;7.32;;
64029;SDS011;50277;52.064;4.492;2023-06-01T01:34:13;12.55;;;6.93;;
64029;SDS011;50277;52.064;4.492;2023-06-01T01:36:38;14.15;;;7.93;;
64029;SDS011;50277;52.064;4.492;2023-06-01T01:39:03;10.07;;;7.68;;
64029;SDS011;50277;52.064;4.492;2023-06-01T01:41:30;12.18;;;7.13;;
64029;SDS011;50277;52.064;4.492;2023-06-01T01:43:55;11.18;;;7.53;;
64029;SDS011;50277;52.064;4.492;2023-06-01T01:46:30;10.70;;;7.00;;
64029;SDS011;50277;52.064;4.492;2023-06-01T01:54:17;13.63;;;8.15;;
64029;SDS011;50277;52.064;4.492;2023-06-01T01:56:43;12.88;;;8.85;;
64029;SDS011;50277;52.064;4.492;2023-06-01T01:59:09;15.02;;;8.52;;
64029;SDS011;50277;52.064;4.492;2023-06-01T02:01:35;12.65;;;8.05;;
64029;SDS011;50277;52.064;4.492;2023-06-01T02:04:02;12.00;;;7.90;;
64029;SDS011;50277;52.064;4.492;2023-06-01T02:06:28;10.90;;;7.47;;
64029;SDS011;50277;52.064;4.492;2023-06-01T02:08:54;13.85;;;7.63;;
64029;SDS011;50277;52.064;4.492;2023-06-01T02:11:20;17.17;;;7.07;;
64029;SDS011;50277;52.064;4.492;2023-06-01T02:13:45;12.48;;;7.38;;
64029;SDS011;50277;52.064;4.492;2023-06-01T02:16:11;14.70;;;6.57;;
64029;SDS011;50277;52.064;4.492;2023-06-01T02:18:36;11.88;;;7.20;;
64029;SDS011;50277;52.064;4.492;2023-06-01T02:21:04;12.00;;;6.85;;
64029;SDS011;50277;52.064;4.492;2023-06-01T02:23:30;9.00;;;6.07;;
64029;SDS011;50277;52.064;4.492;2023-06-01T02:25:55;17.23;;;6.63;;
64029;SDS011;50277;52.064;4.492;2023-06-01T02:28:20;17.35;;;6.50;;
64029;SDS011;50277;52.064;4.492;2023-06-01T02:30:45;13.25;;;6.97;;
64029;SDS011;50277;52.064;4.492;2023-06-01T02:33:11;16.00;;;6.95;;
64029;SDS011;50277;52.064;4.492;2023-06-01T02:35:36;15.40;;;6.63;;
64029;SDS011;50277;52.064;4.492;2023-06-01T02:38:01;9.95;;;6.75;;
64029;SDS011;50277;52.064;4.492;2023-06-01T02:40:27;14.23;;;6.70;;
64029;SDS011;50277;52.064;4.492;2023-06-01T02:42:53;14.50;;;5.95;;
64029;SDS011;50277;52.064;4.492;2023-06-01T02:45:18;13.05;;;6.75;;
64029;SDS011;50277;52.064;4.492;2023-06-01T02:47:43;12.10;;;6.70;;
64029;SDS011;50277;52.064;4.492;2023-06-01T02:50:09;15.10;;;6.63;;
64029;SDS011;50277;52.064;4.492;2023-06-01T02:52:35;10.00;;;7.10;;
64029;SDS011;50277;52.064;4.492;2023-06-01T02:55:01;12.95;;;7.18;;
64029;SDS011;50277;52.064;4.492;2023-06-01T02:57:26;11.90;;;6.00;;
64029;SDS011;50277;52.064;4.492;2023-06-01T02:59:51;10.85;;;6.90;;
64029;SDS011;50277;52.064;4.492;2023-06-01T03:02:17;11.10;;;6.63;;
64029;SDS011;50277;52.064;4.492;2023-06-01T03:04:42;9.30;;;6.78;;
64029;SDS011;50277;52.064;4.492;2023-06-01T03:07:08;14.93;;;7.43;;
64029;SDS011;50277;52.064;4.492;2023-06-01T03:09:33;13.48;;;7.03;;
64029;SDS011;50277;52.064;4.492;2023-06-01T03:11:59;17.58;;;6.35;;
64029;SDS011;50277;52.064;4.492;2023-06-01T03:14:26;13.85;;;7.00;;
64029;SDS011;50277;52.064;4.492;2023-06-01T03:16:51;15.65;;;7.47;;
64029;SDS011;50277;52.064;4.492;2023-06-01T03:19:16;11.68;;;7.03;;
64029;SDS011;50277;52.064;4.492;2023-06-01T03:21:42;11.43;;;7.65;;
64029;SDS011;50277;52.064;4.492;2023-06-01T03:24:07;12.93;;;7.15;;
64029;SDS011;50277;52.064;4.492;2023-06-01T03:26:32;13.85;;;7.07;;
64029;SDS011;50277;52.064;4.492;2023-06-01T03:28:58;14.32;;;6.97;;
64029;SDS011;50277;52.064;4.492;2023-06-01T03:31:24;15.45;;;7.03;;
64029;SDS011;50277;52.064;4.492;2023-06-01T03:33:49;12.35;;;7.15;;
64029;SDS011;50277;52.064;4.492;2023-06-01T03:36:15;14.70;;;7.03;;
64029;SDS011;50277;52.064;4.492;2023-06-01T03:38:40;13.82;;;7.38;;
64029;SDS011;50277;52.064;4.492;2023-06-01T03:41:07;12.98;;;7.57;;
64029;SDS011;50277;52.064;4.492;2023-06-01T03:43:33;13.65;;;7.45;;
64029;SDS011;50277;52.064;4.492;2023-06-01T03:45:58;13.75;;;6.95;;
64029;SDS011;50277;52.064;4.492;2023-06-01T03:48:23;8.93;;;5.68;;
64029;SDS011;50277;52.064;4.492;2023-06-01T03:50:49;11.73;;;6.82;;
64029;SDS011;50277;52.064;4.492;2023-06-01T03:53:14;15.00;;;6.85;;
64029;SDS011;50277;52.064;4.492;2023-06-01T03:55:39;20.38;;;7.78;;
64029;SDS011;50277;52.064;4.492;2023-06-01T03:58:05;15.60;;;6.63;;
64029;SDS011;50277;52.064;4.492;2023-06-01T04:00:32;18.42;;;7.65;;
64029;SDS011;50277;52.064;4.492;2023-06-01T04:02:57;17.40;;;7.10;;
64029;SDS011;50277;52.064;4.492;2023-06-01T04:05:24;17.13;;;7.45;;
64029;SDS011;50277;52.064;4.492;2023-06-01T04:07:51;15.00;;;6.75;;
64029;SDS011;50277;52.064;4.492;2023-06-01T04:10:17;11.07;;;7.35;;
64029;SDS011;50277;52.064;4.492;2023-06-01T04:12:43;16.45;;;7.15;;
64029;SDS011;50277;52.064;4.492;2023-06-01T04:15:10;12.52;;;7.30;;
64029;SDS011;50277;52.064;4.492;2023-06-01T04:17:36;14.00;;;8.40;;
64029;SDS011;50277;52.064;4.492;2023-06-01T04:20:03;15.50;;;6.68;;
64029;SDS011;50277;52.064;4.492;2023-06-01T04:22:31;16.77;;;7.38;;
64029;SDS011;50277;52.064;4.492;2023-06-01T04:24:57;13.30;;;6.38;;
64029;SDS011;50277;52.064;4.492;2023-06-01T04:27:22;10.27;;;6.22;;
64029;SDS011;50277;52.064;4.492;2023-06-01T04:29:49;16.23;;;6.50;;
64029;SDS011;50277;52.064;4.492;2023-06-01T04:32:15;11.57;;;6.18;;
64029;SDS011;50277;52.064;4.492;2023-06-01T04:34:46;9.57;;;6.50;;
64029;SDS011;50277;52.064;4.492;2023-06-01T04:37:14;16.60;;;6.47;;
64029;SDS011;50277;52.064;4.492;2023-06-01T04:39:40;14.52;;;6.32;;
64029;SDS011;50277;52.064;4.492;2023-06-01T04:42:06;15.52;;;6.88;;
64029;SDS011;50277;52.064;4.492;2023-06-01T04:44:33;11.73;;;7.13;;
64029;SDS011;50277;52.064;4.492;2023-06-01T04:46:59;12.60;;;6.57;;
64029;SDS011;50277;52.064;4.492;2023-06-01T04:49:28;13.20;;;6.82;;
64029;SDS011;50277;52.064;4.492;2023-06-01T04:51:54;11.45;;;7.03;;
64029;SDS011;50277;52.064;4.492;2023-06-01T04:54:19;14.27;;;7.20;;
64029;SDS011;50277;52.064;4.492;2023-06-01T04:56:44;10.95;;;7.00;;
64029;SDS011;50277;52.064;4.492;2023-06-01T04:59:09;14.82;;;6.90;;
64029;SDS011;50277;52.064;4.492;2023-06-01T05:01:35;11.43;;;6.00;;
64029;SDS011;50277;52.064;4.492;2023-06-01T05:04:03;14.55;;;7.40;;
64029;SDS011;50277;52.064;4.492;2023-06-01T05:06:29;17.52;;;7.85;;
64029;SDS011;50277;52.064;4.492;2023-06-01T05:08:54;16.42;;;7.63;;
64029;SDS011;50277;52.064;4.492;2023-06-01T05:11:20;20.40;;;8.55;;
64029;SDS011;50277;52.064;4.492;2023-06-01T05:13:46;15.73;;;7.68;;
64029;SDS011;50277;52.064;4.492;2023-06-01T05:16:11;12.57;;;7.47;;
64029;SDS011;50277;52.064;4.492;2023-06-01T05:18:37;14.43;;;7.00;;
64029;SDS011;50277;52.064;4.492;2023-06-01T05:21:03;14.80;;;7.95;;
64029;SDS011;50277;52.064;4.492;2023-06-01T05:23:29;16.73;;;7.70;;
64029;SDS011;50277;52.064;4.492;2023-06-01T05:25:54;13.68;;;7.88;;
64029;SDS011;50277;52.064;4.492;2023-06-01T05:28:27;14.15;;;7.47;;
64029;SDS011;50277;52.064;4.492;2023-06-01T05:30:53;10.63;;;7.05;;
64029;SDS011;50277;52.064;4.492;2023-06-01T05:33:19;13.95;;;7.75;;
64029;SDS011;50277;52.064;4.492;2023-06-01T05:35:44;12.70;;;7.45;;
64029;SDS011;50277;52.064;4.492;2023-06-01T05:38:10;12.23;;;6.95;;
64029;SDS011;50277;52.064;4.492;2023-06-01T05:40:35;16.33;;;7.78;;
64029;SDS011;50277;52.064;4.492;2023-06-01T05:43:01;14.02;;;8.18;;
64029;SDS011;50277;52.064;4.492;2023-06-01T05:45:26;15.52;;;8.45;;
64029;SDS011;50277;52.064;4.492;2023-06-01T05:47:51;18.70;;;8.65;;
64029;SDS011;50277;52.064;4.492;2023-06-01T05:50:17;16.80;;;8.48;;
64029;SDS011;50277;52.064;4.492;2023-06-01T05:52:42;13.88;;;7.90;;
64029;SDS011;50277;52.064;4.492;2023-06-01T05:55:07;16.15;;;9.25;;
64029;SDS011;50277;52.064;4.492;2023-06-01T05:57:33;14.27;;;8.45;;
64029;SDS011;50277;52.064;4.492;2023-06-01T05:59:58;20.63;;;9.23;;
64029;SDS011;50277;52.064;4.492;2023-06-01T06:02:24;18.52;;;9.88;;
64029;SDS011;50277;52.064;4.492;2023-06-01T06:04:49;18.15;;;10.05;;
64029;SDS011;50277;52.064;4.492;2023-06-01T06:07:14;21.35;;;10.60;;
64029;SDS011;50277;52.064;4.492;2023-06-01T06:09:40;19.25;;;10.18;;
64029;SDS011;50277;52.064;4.492;2023-06-01T06:12:06;15.75;;;9.32;;
64029;SDS011;50277;52.064;4.492;2023-06-01T06:14:32;15.80;;;9.30;;
64029;SDS011;50277;52.064;4.492;2023-06-01T06:16:57;18.23;;;9.10;;
64029;SDS011;50277;52.064;4.492;2023-06-01T06:19:22;13.75;;;8.32;;
64029;SDS011;50277;52.064;4.492;2023-06-01T06:21:48;14.35;;;9.02;;
64029;SDS011;50277;52.064;4.492;2023-06-01T06:24:13;17.02;;;8.55;;
64029;SDS011;50277;52.064;4.492;2023-06-01T06:26:38;18.35;;;9.25;;
64029;SDS011;50277;52.064;4.492;2023-06-01T06:29:04;20.73;;;8.57;;
64029;SDS011;50277;52.064;4.492;2023-06-01T06:31:30;15.32;;;8.43;;
64029;SDS011;50277;52.064;4.492;2023-06-01T06:33:55;14.50;;;8.55;;
64029;SDS011;50277;52.064;4.492;2023-06-01T06:36:20;17.02;;;9.38;;
64029;SDS011;50277;52.064;4.492;2023-06-01T06:38:46;21.73;;;9.13;;
64029;SDS011;50277;52.064;4.492;2023-06-01T06:41:11;15.85;;;9.60;;
64029;SDS011;50277;52.064;4.492;2023-06-01T06:43:36;11.88;;;8.23;;
64029;SDS011;50277;52.064;4.492;2023-06-01T06:46:02;12.43;;;8.57;;
64029;SDS011;50277;52.064;4.492;2023-06-01T06:48:28;13.00;;;8.88;;
64029;SDS011;50277;52.064;4.492;2023-06-01T06:50:53;13.55;;;8.15;;
64029;SDS011;50277;52.064;4.492;2023-06-01T06:53:18;11.02;;;7.72;;
64029;SDS011;50277;52.064;4.492;2023-06-01T06:55:44;17.50;;;8.98;;
64029;SDS011;50277;52.064;4.492;2023-06-01T06:58:10;13.85;;;7.30;;
64029;SDS011;50277;52.064;4.492;2023-06-01T07:00:36;11.80;;;6.80;;
64029;SDS011;50277;52.064;4.492;2023-06-01T07:03:01;15.07;;;8.43;;
64029;SDS011;50277;52.064;4.492;2023-06-01T07:05:27;16.02;;;8.43;;
64029;SDS011;50277;52.064;4.492;2023-06-01T07:07:52;20.88;;;8.02;;
64029;SDS011;50277;52.064;4.492;2023-06-01T07:10:17;14.55;;;7.90;;
64029;SDS011;50277;52.064;4.492;2023-06-01T07:12:43;15.48;;;7.43;;
64029;SDS011;50277;52.064;4.492;2023-06-01T07:15:08;13.98;;;6.43;;
64029;SDS011;50277;52.064;4.492;2023-06-01T07:17:34;11.00;;;6.15;;
64029;SDS011;50277;52.064;4.492;2023-06-01T07:20:01;10.70;;;7.10;;
64029;SDS011;50277;52.064;4.492;2023-06-01T09:55:04;9.70;;;5.22;;
64029;SDS011;50277;52.064;4.492;2023-06-01T09:57:30;7.20;;;4.57;;
64029;SDS011;50277;52.064;4.492;2023-06-01T09:59:56;10.80;;;4.75;;
64029;SDS011;50277;52.064;4.492;2023-06-01T10:02:22;9.20;;;4.75;;
64029;SDS011;50277;52.064;4.492;2023-06-01T10:04:55;9.60;;;5.47;;
64029;SDS011;50277;52.064;4.492;2023-06-01T10:07:25;9.45;;;4.78;;
64029;SDS011;50277;52.064;4.492;2023-06-01T10:09:56;6.55;;;4.38;;
64029;SDS011;50277;52.064;4.492;2023-06-01T10:12:23;12.00;;;5.30;;
64029;SDS011;50277;52.064;4.492;2023-06-01T10:14:50;8.23;;;4.55;;
64029;SDS011;50277;52.064;4.492;2023-06-01T10:17:15;7.93;;;5.20;;
64029;SDS011;50277;52.064;4.492;2023-06-01T10:19:41;8.57;;;4.57;;
64029;SDS011;50277;52.064;4.492;2023-06-01T10:22:07;6.97;;;4.97;;
64029;SDS011;50277;52.064;4.492;2023-06-01T10:24:33;10.85;;;5.25;;
64029;SDS011;50277;52.064;4.492;2023-06-01T10:29:45;7.05;;;4.22;;
64029;SDS011;50277;52.064;4.492;2023-06-01T10:35:02;6.45;;;4.68;;
64029;SDS011;50277;52.064;4.492;2023-06-01T10:37:30;9.40;;;4.22;;
64029;SDS011;50277;52.064;4.492;2023-06-01T10:42:43;9.50;;;4.00;;
64029;SDS011;50277;52.064;4.492;2023-06-01T10:48:11;7.30;;;4.65;;
64029;SDS011;50277;52.064;4.492;2023-06-01T10:50:40;6.60;;;4.43;;
64029;SDS011;50277;52.064;4.492;2023-06-01T10:53:29;12.95;;;4.25;;
64029;SDS011;50277;52.064;4.492;2023-06-01T11:01:36;8.73;;;4.30;;
64029;SDS011;50277;52.064;4.492;2023-06-01T11:04:05;7.70;;;4.15;;
64029;SDS011;50277;52.064;4.492;2023-06-01T11:06:34;11.20;;;4.28;;
64029;SDS011;50277;52.064;4.492;2023-06-01T11:09:03;11.55;;;4.70;;
64029;SDS011;50277;52.064;4.492;2023-06-01T11:11:56;11.88;;;3.80;;
64029;SDS011;50277;52.064;4.492;2023-06-01T11:14:23;8.75;;;4.00;;
64029;SDS011;50277;52.064;4.492;2023-06-01T11:16:52;10.02;;;3.75;;
64029;SDS011;50277;52.064;4.492;2023-06-01T11:19:18;9.43;;;4.03;;
64029;SDS011;50277;52.064;4.492;2023-06-01T11:21:51;5.97;;;3.90;;
64029;SDS011;50277;52.064;4.492;2023-06-01T11:24:19;7.38;;;3.50;;
64029;SDS011;50277;52.064;4.492;2023-06-01T11:26:46;7.22;;;4.03;;
64029;SDS011;50277;52.064;4.492;2023-06-01T11:29:13;7.93;;;4.10;;
64029;SDS011;50277;52.064;4.492;2023-06-01T11:31:47;13.23;;;4.20;;
64029;SDS011;50277;52.064;4.492;2023-06-01T11:34:15;12.32;;;4.32;;
64029;SDS011;50277;52.064;4.492;2023-06-01T11:36:45;5.57;;;3.53;;
64029;SDS011;50277;52.064;4.492;2023-06-01T11:39:23;10.50;;;3.33;;
64029;SDS011;50277;52.064;4.492;2023-06-01T11:41:50;8.05;;;3.22;;
64029;SDS011;50277;52.064;4.492;2023-06-01T11:44:17;7.75;;;3.33;;
64029;SDS011;50277;52.064;4.492;2023-06-01T11:46:51;8.55;;;3.85;;
64029;SDS011;50277;52.064;4.492;2023-06-01T11:49:17;7.20;;;2.95;;
64029;SDS011;50277;52.064;4.492;2023-06-01T11:51:43;9.98;;;3.00;;
64029;SDS011;50277;52.064;4.492;2023-06-01T11:54:08;8.73;;;3.35;;
64029;SDS011;50277;52.064;4.492;2023-06-01T11:56:35;6.90;;;3.30;;
64029;SDS011;50277;52.064;4.492;2023-06-01T11:59:01;5.75;;;2.90;;
64029;SDS011;50277;52.064;4.492;2023-06-01T12:01:33;7.50;;;3.33;;
64029;SDS011;50277;52.064;4.492;2023-06-01T12:03:59;6.65;;;2.92;;
64029;SDS011;50277;52.064;4.492;2023-06-01T12:06:25;6.07;;;3.30;;
64029;SDS011;50277;52.064;4.492;2023-06-01T12:08:51;6.10;;;3.33;;
64029;SDS011;50277;52.064;4.492;2023-06-01T12:11:19;9.07;;;3.30;;
64029;SDS011;50277;52.064;4.492;2023-06-01T12:13:47;5.18;;;2.72;;
64029;SDS011;50277;52.064;4.492;2023-06-01T12:16:14;4.75;;;2.60;;
64029;SDS011;50277;52.064;4.492;2023-06-01T12:18:41;6.35;;;3.03;;
64029;SDS011;50277;52.064;4.492;2023-06-01T12:21:10;4.38;;;2.55;;
64029;SDS011;50277;52.064;4.492;2023-06-01T12:23:38;6.75;;;2.78;;
64029;SDS011;50277;52.064;4.492;2023-06-01T12:26:04;3.42;;;2.60;;
64029;SDS011;50277;52.064;4.492;2023-06-01T12:31:13;9.70;;;3.03;;
64029;SDS011;50277;52.064;4.492;2023-06-01T12:33:40;8.77;;;3.40;;
64029;SDS011;50277;52.064;4.492;2023-06-01T12:36:07;8.38;;;2.70;;
64029;SDS011;50277;52.064;4.492;2023-06-01T12:38:49;5.35;;;3.17;;
64029;SDS011;50277;52.064;4.492;2023-06-01T12:41:16;5.57;;;2.80;;
64029;SDS011;50277;52.064;4.492;2023-06-01T12:43:46;3.83;;;2.58;;
64029;SDS011;50277;52.064;4.492;2023-06-01T12:46:18;4.50;;;2.25;;
64029;SDS011;50277;52.064;4.492;2023-06-01T12:48:44;5.60;;;2.67;;
64029;SDS011;50277;52.064;4.492;2023-06-01T12:51:10;8.75;;;2.58;;
64029;SDS011;50277;52.064;4.492;2023-06-01T12:53:36;4.53;;;2.33;;
64029;SDS011;50277;52.064;4.492;2023-06-01T12:56:01;4.78;;;2.10;;
64029;SDS011;50277;52.064;4.492;2023-06-01T12:58:27;8.32;;;2.55;;
64029;SDS011;50277;52.064;4.492;2023-06-01T13:00:53;3.88;;;2.17;;
64029;SDS011;50277;52.064;4.492;2023-06-01T13:03:19;4.15;;;2.10;;
64029;SDS011;50277;52.064;4.492;2023-06-01T13:05:45;2.80;;;1.95;;
64029;SDS011;50277;52.064;4.492;2023-06-01T13:08:12;9.82;;;2.65;;
64029;SDS011;50277;52.064;4.492;2023-06-01T13:10:40;6.85;;;2.70;;
64029;SDS011;50277;52.064;4.492;2023-06-01T13:13:09;4.15;;;2.90;;
64029;SDS011;50277;52.064;4.492;2023-06-01T13:15:38;6.43;;;2.95;;
64029;SDS011;50277;52.064;4.492;2023-06-01T13:20:29;3.33;;;2.97;;
64029;SDS011;50277;52.064;4.492;2023-06-01T13:22:54;4.57;;;3.20;;
64029;SDS011;50277;52.064;4.492;2023-06-01T13:25:20;4.00;;;3.10;;
64029;SDS011;50277;52.064;4.492;2023-06-01T13:27:45;4.53;;;2.80;;
64029;SDS011;50277;52.064;4.492;2023-06-01T13:30:11;4.97;;;2.85;;
64029;SDS011;50277;52.064;4.492;2023-06-01T13:32:37;4.95;;;2.97;;
64029;SDS011;50277;52.064;4.492;2023-06-01T13:35:02;4.60;;;2.85;;
64029;SDS011;50277;52.064;4.492;2023-06-01T13:37:28;3.58;;;2.95;;
64029;SDS011;50277;52.064;4.492;2023-06-01T13:39:53;3.65;;;3.40;;
64029;SDS011;50277;52.064;4.492;2023-06-01T13:42:19;4.53;;;3.17;;
64029;SDS011;50277;52.064;4.492;2023-06-01T13:44:44;6.55;;;3.03;;
64029;SDS011;50277;52.064;4.492;2023-06-01T13:47:12;3.97;;;2.53;;
64029;SDS011;50277;52.064;4.492;2023-06-01T13:52:05;2.15;;;1.98;;
64029;SDS011;50277;52.064;4.492;2023-06-01T13:54:31;5.70;;;2.60;;
64029;SDS011;50277;52.064;4.492;2023-06-01T13:56:56;5.28;;;2.75;;
64029;SDS011;50277;52.064;4.492;2023-06-01T13:59:21;5.50;;;3.03;;
64029;SDS011;50277;52.064;4.492;2023-06-01T14:01:47;4.57;;;2.72;;
64029;SDS011;50277;52.064;4.492;2023-06-01T14:04:12;6.25;;;2.65;;
64029;SDS011;50277;52.064;4.492;2023-06-01T14:06:37;9.18;;;3.10;;
64029;SDS011;50277;52.064;4.492;2023-06-01T14:09:03;7.47;;;2.83;;
64029;SDS011;50277;52.064;4.492;2023-06-01T14:11:28;8.10;;;3.10;;
64029;SDS011;50277;52.064;4.492;2023-06-01T14:13:53;9.07;;;3.28;;
64029;SDS011;50277;52.064;4.492;2023-06-01T14:16:19;9.45;;;3.17;;
64029;SDS011;50277;52.064;4.492;2023-06-01T14:18:44;10.57;;;3.63;;
64029;SDS011;50277;52.064;4.492;2023-06-01T14:21:09;7.60;;;3.08;;
64029;SDS011;50277;52.064;4.492;2023-06-01T14:23:35;5.90;;;2.80;;
64029;SDS011;50277;52.064;4.492;2023-06-01T14:26:01;4.43;;;2.67;;
64029;SDS011;50277;52.064;4.492;2023-06-01T14:28:26;5.80;;;2.67;;
64029;SDS011;50277;52.064;4.492;2023-06-01T14:30:51;7.70;;;3.50;;
64029;SDS011;50277;52.064;4.492;2023-06-01T14:33:17;8.52;;;3.50;;
64029;SDS011;50277;52.064;4.492;2023-06-01T14:35:42;7.82;;;2.88;;
64029;SDS011;50277;52.064;4.492;2023-06-01T14:38:07;6.88;;;3.50;;
64029;SDS011;50277;52.064;4.492;2023-06-01T14:40:32;7.38;;;3.58;;
64029;SDS011;50277;52.064;4.492;2023-06-01T14:42:58;4.30;;;2.72;;
64029;SDS011;50277;52.064;4.492;2023-06-01T14:45:23;4.18;;;2.78;;
64029;SDS011;50277;52.064;4.492;2023-06-01T14:47:49;4.78;;;2.53;;
64029;SDS011;50277;52.064;4.492;2023-06-01T14:50:14;4.82;;;2.10;;
64029;SDS011;50277;52.064;4.492;2023-06-01T14:52:39;5.00;;;2.42;;
64029;SDS011;50277;52.064;4.492;2023-06-01T14:55:05;6.00;;;2.28;;
64029;SDS011;50277;52.064;4.492;2023-06-01T14:57:31;4.50;;;2.70;;
64029;SDS011;50277;52.064;4.492;2023-06-01T14:59:57;3.42;;;2.60;;
64029;SDS011;50277;52.064;4.492;2023-06-01T15:02:22;4.78;;;2.83;;
64029;SDS011;50277;52.064;4.492;2023-06-01T15:04:47;4.97;;;2.67;;
64029;SDS011;50277;52.064;4.492;2023-06-01T15:07:12;6.50;;;2.63;;
64029;SDS011;50277;52.064;4.492;2023-06-01T15:09:38;5.93;;;2.60;;
64029;SDS011;50277;52.064;4.492;2023-06-01T15:12:03;7.72;;;2.45;;
64029;SDS011;50277;52.064;4.492;2023-06-01T15:14:29;8.90;;;2.83;;
64029;SDS011;50277;52.064;4.492;2023-06-01T15:16:54;5.03;;;2.60;;
64029;SDS011;50277;52.064;4.492;2023-06-01T15:19:19;6.00;;;2.92;;
64029;SDS011;50277;52.064;4.492;2023-06-01T15:21:45;6.07;;;2.55;;
64029;SDS011;50277;52.064;4.492;2023-06-01T15:24:10;6.57;;;3.15;;
64029;SDS011;50277;52.064;4.492;2023-06-01T15:26:35;5.32;;;2.10;;
64029;SDS011;50277;52.064;4.492;2023-06-01T15:29:01;2.53;;;2.17;;
64029;SDS011;50277;52.064;4.492;2023-06-01T15:31:26;6.97;;;2.53;;
64029;SDS011;50277;52.064;4.492;2023-06-01T15:33:51;6.20;;;2.65;;
64029;SDS011;50277;52.064;4.492;2023-06-01T15:36:17;5.40;;;2.45;;
64029;SDS011;50277;52.064;4.492;2023-06-01T15:38:42;6.72;;;2.38;;
64029;SDS011;50277;52.064;4.492;2023-06-01T15:41:07;6.45;;;2.50;;
64029;SDS011;50277;52.064;4.492;2023-06-01T15:43:33;4.22;;;2.53;;
64029;SDS011;50277;52.064;4.492;2023-06-01T15:45:59;6.60;;;2.60;;
64029;SDS011;50277;52.064;4.492;2023-06-01T15:48:25;4.32;;;2.38;;
64029;SDS011;50277;52.064;4.492;2023-06-01T15:50:50;6.47;;;2.65;;
64029;SDS011;50277;52.064;4.492;2023-06-01T15:53:15;5.50;;;2.60;;
64029;SDS011;50277;52.064;4.492;2023-06-01T15:55:41;3.92;;;2.25;;
64029;SDS011;50277;52.064;4.492;2023-06-01T15:58:06;8.77;;;2.17;;
64029;SDS011;50277;52.064;4.492;2023-06-01T16:00:31;6.03;;;2.53;;
64029;SDS011;50277;52.064;4.492;2023-06-01T16:02:57;6.68;;;3.13;;
64029;SDS011;50277;52.064;4.492;2023-06-01T16:05:22;6.88;;;2.85;;
64029;SDS011;50277;52.064;4.492;2023-06-01T16:07:47;5.90;;;3.47;;
64029;SDS011;50277;52.064;4.492;2023-06-01T16:10:13;3.38;;;2.80;;
64029;SDS011;50277;52.064;4.492;2023-06-01T16:12:39;7.93;;;2.90;;
64029;SDS011;50277;52.064;4.492;2023-06-01T16:15:04;8.00;;;2.78;;
64029;SDS011;50277;52.064;4.492;2023-06-01T16:17:30;7.65;;;3.17;;
64029;SDS011;50277;52.064;4.492;2023-06-01T16:19:55;8.55;;;2.80;;
64029;SDS011;50277;52.064;4.492;2023-06-01T16:22:21;9.80;;;3.22;;
64029;SDS011;50277;52.064;4.492;2023-06-01T16:24:46;8.65;;;3.28;;
64029;SDS011;50277;52.064;4.492;2023-06-01T16:27:12;11.13;;;2.72;;
64029;SDS011;50277;52.064;4.492;2023-06-01T16:29:37;7.68;;;3.03;;
64029;SDS011;50277;52.064;4.492;2023-06-01T16:32:03;9.35;;;2.60;;
64029;SDS011;50277;52.064;4.492;2023-06-01T16:34:28;10.10;;;3.05;;
64029;SDS011;50277;52.064;4.492;2023-06-01T16:36:53;5.95;;;2.80;;
64029;SDS011;50277;52.064;4.492;2023-06-01T16:39:19;8.80;;;3.22;;
64029;SDS011;50277;52.064;4.492;2023-06-01T16:41:44;10.57;;;2.95;;
64029;SDS011;50277;52.064;4.492;2023-06-01T16:44:10;5.88;;;2.55;;
64029;SDS011;50277;52.064;4.492;2023-06-01T16:46:35;5.95;;;2.55;;
64029;SDS011;50277;52.064;4.492;2023-06-01T16:49:00;7.05;;;2.67;;
64029;SDS011;50277;52.064;4.492;2023-06-01T16:51:26;4.25;;;2.30;;
64029;SDS011;50277;52.064;4.492;2023-06-01T16:53:51;4.72;;;2.80;;
64029;SDS011;50277;52.064;4.492;2023-06-01T16:56:17;6.32;;;2.67;;
64029;SDS011;50277;52.064;4.492;2023-06-01T16:58:42;8.75;;;2.83;;
64029;SDS011;50277;52.064;4.492;2023-06-01T17:01:07;11.07;;;3.72;;
64029;SDS011;50277;52.064;4.492;2023-06-01T17:03:33;7.95;;;3.25;;
64029;SDS011;50277;52.064;4.492;2023-06-01T17:05:58;6.43;;;2.95;;
64029;SDS011;50277;52.064;4.492;2023-06-01T17:08:24;9.40;;;3.45;;
64029;SDS011;50277;52.064;4.492;2023-06-01T17:10:49;8.40;;;3.13;;
64029;SDS011;50277;52.064;4.492;2023-06-01T17:13:14;11.18;;;3.50;;
64029;SDS011;50277;52.064;4.492;2023-06-01T17:15:40;9.20;;;3.45;;
64029;SDS011;50277;52.064;4.492;2023-06-01T17:18:05;10.25;;;3.70;;
64029;SDS011;50277;52.064;4.492;2023-06-01T17:20:31;9.93;;;4.18;;
64029;SDS011;50277;52.064;4.492;2023-06-01T17:22:56;10.95;;;4.03;;
64029;SDS011;50277;52.064;4.492;2023-06-01T17:25:21;9.70;;;2.97;;
64029;SDS011;50277;52.064;4.492;2023-06-01T17:27:47;6.90;;;3.65;;
64029;SDS011;50277;52.064;4.492;2023-06-01T17:30:13;10.05;;;3.42;;
64029;SDS011;50277;52.064;4.492;2023-06-01T17:32:38;10.77;;;3.05;;
64029;SDS011;50277;52.064;4.492;2023-06-01T17:35:05;10.30;;;3.22;;
64029;SDS011;50277;52.064;4.492;2023-06-01T17:37:31;8.27;;;3.55;;
64029;SDS011;50277;52.064;4.492;2023-06-01T17:39:56;8.88;;;4.10;;
64029;SDS011;50277;52.064;4.492;2023-06-01T17:42:21;10.23;;;4.07;;
64029;SDS011;50277;52.064;4.492;2023-06-01T17:44:46;11.25;;;3.88;;
64029;SDS011;50277;52.064;4.492;2023-06-01T17:47:12;10.23;;;3.40;;